createdAt,value
2023-05-09T00:01:31.389Z,18.61
2023-05-09T00:04:03.997Z,18.60
2023-05-09T00:06:37.634Z,18.60
2023-05-09T00:09:09.927Z,18.59
2023-05-09T00:11:42.966Z,18.57
2023-05-09T00:14:18.436Z,18.59
2023-05-09T00:16:50.821Z,18.59
2023-05-09T00:19:23.266Z,18.57
2023-05-09T00:21:55.988Z,18.57
2023-05-09T00:24:28.351Z,18.56
2023-05-09T00:27:00.893Z,18.57
2023-05-09T00:29:33.221Z,18.56
2023-05-09T00:32:06.528Z,18.56
2023-05-09T00:34:38.960Z,18.56
2023-05-09T00:37:11.276Z,18.56
2023-05-09T00:39:44.605Z,18.55
2023-05-09T00:42:17.104Z,18.53
2023-05-09T00:44:49.515Z,18.53
2023-05-09T00:47:23.949Z,18.53
2023-05-09T00:49:58.206Z,18.54
2023-05-09T00:52:33.064Z,18.52
2023-05-09T00:55:08.457Z,18.53
2023-05-09T00:57:40.901Z,18.52
2023-05-09T01:00:14.066Z,18.53
2023-05-09T01:02:53.467Z,18.53
2023-05-09T01:05:33.154Z,18.52
2023-05-09T01:08:17.927Z,18.50
2023-05-09T01:10:55.774Z,18.50
2023-05-09T01:13:41.528Z,18.51
2023-05-09T01:16:31.232Z,18.51
2023-05-09T01:19:38.223Z,18.50
2023-05-09T01:22:14.542Z,18.50
2023-05-09T01:25:08.486Z,18.49
2023-05-09T01:28:12.760Z,18.48
2023-05-09T01:30:47.519Z,18.48
2023-05-09T01:33:22.181Z,18.47
2023-05-09T01:36:03.438Z,18.47
2023-05-09T01:38:38.698Z,18.47
2023-05-09T01:41:15.881Z,18.47
2023-05-09T01:43:50.870Z,18.45
2023-05-09T01:46:25.855Z,18.45
2023-05-09T01:48:59.453Z,18.46
2023-05-09T01:51:34.854Z,18.45
2023-05-09T01:54:07.974Z,18.46
2023-05-09T01:56:42.197Z,18.43
2023-05-09T01:59:16.320Z,18.45
2023-05-09T02:01:49.666Z,18.45
2023-05-09T02:04:22.379Z,18.44
2023-05-09T02:06:55.812Z,18.42
2023-05-09T02:09:30.492Z,18.42
2023-05-09T02:12:04.573Z,18.41
2023-05-09T02:14:37.421Z,18.40
2023-05-09T02:17:11.447Z,18.41
2023-05-09T02:19:44.166Z,18.41
2023-05-09T02:22:16.663Z,18.40
2023-05-09T02:24:49.150Z,18.38
2023-05-09T02:27:22.828Z,18.40
2023-05-09T02:29:57.672Z,18.39
2023-05-09T02:32:34.088Z,18.40
2023-05-09T02:35:09.731Z,18.38
2023-05-09T02:37:42.734Z,18.38
2023-05-09T02:40:15.219Z,18.38
2023-05-09T02:42:47.649Z,18.37
2023-05-09T02:45:21.829Z,18.37
2023-05-09T02:47:55.416Z,18.37
2023-05-09T02:50:28.660Z,18.36
2023-05-09T02:53:01.523Z,18.35
2023-05-09T02:55:35.020Z,18.36
2023-05-09T02:58:14.234Z,18.33
2023-05-09T03:00:51.040Z,18.35
2023-05-09T03:03:25.431Z,18.34
2023-05-09T03:05:57.906Z,18.34
2023-05-09T03:08:30.920Z,18.33
2023-05-09T03:11:03.539Z,18.33
2023-05-09T03:13:36.605Z,18.32
2023-05-09T03:16:09.024Z,18.31
2023-05-09T03:18:41.599Z,18.32
2023-05-09T03:21:13.971Z,18.30
2023-05-09T03:23:47.488Z,18.31
2023-05-09T03:26:19.798Z,18.30
2023-05-09T03:28:53.882Z,18.30
2023-05-09T03:31:27.875Z,18.29
2023-05-09T03:34:00.761Z,18.29
2023-05-09T03:36:34.067Z,18.29
2023-05-09T03:39:08.694Z,18.29
2023-05-09T03:41:44.317Z,18.27
2023-05-09T03:44:17.825Z,18.29
2023-05-09T03:46:50.530Z,18.28
2023-05-09T03:49:22.993Z,18.28
2023-05-09T03:51:59.698Z,18.26
2023-05-09T03:54:32.839Z,18.26
2023-05-09T03:57:05.847Z,18.26
2023-05-09T03:59:38.230Z,18.24
2023-05-09T04:02:11.068Z,18.25
2023-05-09T04:04:43.986Z,18.25
2023-05-09T04:07:16.772Z,18.25
2023-05-09T04:09:49.666Z,18.25
2023-05-09T04:12:22.266Z,18.24
2023-05-09T04:14:55.217Z,18.23
2023-05-09T04:17:30.364Z,18.23
2023-05-09T04:20:03.233Z,18.23
2023-05-09T04:22:36.316Z,18.22
2023-05-09T04:25:12.595Z,18.21
2023-05-09T04:27:45.528Z,18.21
2023-05-09T04:30:18.374Z,18.20
2023-05-09T04:32:53.585Z,18.20
2023-05-09T04:35:27.253Z,18.20
2023-05-09T04:38:00.163Z,18.20
2023-05-09T04:40:33.277Z,18.19
2023-05-09T04:43:06.767Z,18.19
2023-05-09T04:45:40.060Z,18.18
2023-05-09T04:48:12.624Z,18.19
2023-05-09T04:50:45.045Z,18.18
2023-05-09T04:53:17.385Z,18.18
2023-05-09T04:55:51.981Z,18.17
2023-05-09T04:58:26.576Z,18.17
2023-05-09T05:01:00.946Z,18.16
2023-05-09T05:03:33.744Z,18.16
2023-05-09T05:06:06.714Z,18.16
2023-05-09T05:08:40.425Z,18.16
2023-05-09T05:11:13.711Z,18.16
2023-05-09T05:13:46.051Z,18.14
2023-05-09T05:16:18.421Z,18.14
2023-05-09T05:18:51.644Z,18.14
2023-05-09T05:21:25.445Z,18.14
2023-05-09T05:23:57.702Z,18.14
2023-05-09T05:26:32.077Z,18.14
2023-05-09T05:29:05.110Z,18.14
2023-05-09T05:31:37.512Z,18.14
2023-05-09T05:34:09.841Z,18.13
2023-05-09T05:36:43.486Z,18.12
2023-05-09T05:39:16.228Z,18.13
2023-05-09T05:41:48.655Z,18.14
2023-05-09T05:44:22.080Z,18.14
2023-05-09T05:46:54.922Z,18.13
2023-05-09T05:49:28.059Z,18.13
2023-05-09T05:52:00.426Z,18.14
2023-05-09T05:54:33.371Z,18.13
2023-05-09T05:57:05.763Z,18.14
2023-05-09T05:59:38.290Z,18.14
2023-05-09T06:02:10.932Z,18.14
2023-05-09T06:04:43.790Z,18.15
2023-05-09T06:07:16.382Z,18.16
2023-05-09T06:09:48.982Z,18.16
2023-05-09T06:12:21.355Z,18.17
2023-05-09T06:14:53.901Z,18.18
2023-05-09T06:17:27.206Z,18.19
2023-05-09T06:20:02.337Z,18.19
2023-05-09T06:22:34.682Z,18.20
2023-05-09T06:25:10.135Z,18.20
2023-05-09T06:27:42.983Z,18.21
2023-05-09T06:30:25.820Z,18.21
2023-05-09T06:33:00.733Z,18.22
2023-05-09T06:35:33.079Z,18.23
2023-05-09T06:38:05.600Z,18.23
2023-05-09T06:40:37.992Z,18.23
2023-05-09T06:43:11.283Z,18.24
2023-05-09T06:45:43.446Z,18.24
2023-05-09T06:48:16.110Z,18.23
2023-05-09T06:50:48.629Z,18.24
2023-05-09T06:53:20.956Z,18.24
2023-05-09T06:55:53.435Z,18.24
2023-05-09T06:58:27.830Z,18.24
2023-05-09T07:01:00.428Z,18.24
2023-05-09T07:03:33.137Z,18.25
2023-05-09T07:06:07.104Z,18.25
2023-05-09T07:08:39.582Z,18.27
2023-05-09T07:11:11.954Z,18.28
2023-05-09T07:13:44.229Z,18.26
2023-05-09T07:16:18.493Z,18.28
2023-05-09T07:18:51.005Z,18.28
2023-05-09T07:21:23.314Z,18.28
2023-05-09T07:23:55.765Z,18.29
2023-05-09T07:26:28.063Z,18.29
2023-05-09T07:29:00.385Z,18.31
2023-05-09T07:31:35.149Z,18.32
2023-05-09T07:34:09.097Z,18.33
2023-05-09T07:36:41.394Z,18.34
2023-05-09T07:39:14.910Z,18.33
2023-05-09T07:41:48.689Z,18.33
2023-05-09T07:44:21.324Z,18.36
2023-05-09T07:46:55.520Z,18.37
2023-05-09T07:49:28.444Z,18.37
2023-05-09T07:52:00.917Z,18.39
2023-05-09T07:54:34.401Z,18.38
2023-05-09T07:57:06.670Z,18.39
2023-05-09T07:59:39.206Z,18.40
2023-05-09T08:02:11.553Z,18.40
2023-05-09T08:04:44.024Z,18.39
2023-05-09T08:07:16.815Z,18.40
2023-05-09T08:09:50.608Z,18.40
2023-05-09T08:12:22.973Z,18.41
2023-05-09T08:14:55.320Z,18.41
2023-05-09T08:17:27.795Z,18.42
2023-05-09T08:20:00.211Z,18.46
2023-05-09T08:22:32.635Z,18.47
2023-05-09T08:25:05.673Z,18.49
2023-05-09T08:27:38.338Z,18.50
2023-05-09T08:30:11.472Z,18.52
2023-05-09T08:32:43.881Z,18.53
2023-05-09T08:35:17.770Z,18.55
2023-05-09T08:37:51.105Z,18.55
2023-05-09T08:40:24.554Z,18.56
2023-05-09T08:42:56.852Z,18.56
2023-05-09T08:45:31.184Z,18.55
2023-05-09T08:48:04.080Z,18.59
2023-05-09T08:50:36.522Z,18.60
2023-05-09T08:53:09.340Z,18.60
2023-05-09T08:55:41.852Z,18.61
2023-05-09T08:58:14.785Z,18.63
2023-05-09T09:00:47.831Z,18.64
2023-05-09T09:03:20.390Z,18.67
2023-05-09T09:05:54.877Z,18.67
2023-05-09T09:08:27.906Z,18.70
2023-05-09T09:11:00.765Z,18.72
2023-05-09T09:13:39.060Z,18.73
2023-05-09T09:16:20.646Z,18.76
2023-05-09T09:18:57.322Z,18.74
2023-05-09T09:21:32.303Z,18.73
2023-05-09T09:24:08.587Z,18.72
2023-05-09T09:26:47.640Z,18.72
2023-05-09T09:29:23.814Z,18.71
2023-05-09T09:31:56.262Z,18.69
2023-05-09T09:34:29.686Z,18.70
2023-05-09T09:37:02.201Z,18.69
2023-05-09T09:39:34.472Z,18.69
2023-05-09T09:42:12.233Z,18.67
2023-05-09T09:44:44.640Z,18.65
2023-05-09T09:47:16.958Z,18.67
2023-05-09T09:49:49.348Z,18.66
2023-05-09T09:52:25.225Z,18.68
2023-05-09T09:54:57.557Z,18.69
2023-05-09T09:57:37.370Z,18.68
2023-05-09T10:00:10.250Z,18.71
2023-05-09T10:02:54.512Z,18.73
2023-05-09T10:05:27.912Z,18.74
2023-05-09T10:08:01.969Z,18.74
2023-05-09T10:10:36.453Z,18.78
2023-05-09T10:13:11.985Z,18.80
2023-05-09T10:15:53.128Z,18.80
2023-05-09T10:18:29.115Z,18.83
2023-05-09T10:21:03.896Z,18.83
2023-05-09T10:23:38.576Z,18.85
2023-05-09T10:26:23.053Z,18.86
2023-05-09T10:28:57.467Z,18.88
2023-05-09T10:31:32.645Z,18.88
2023-05-09T10:34:12.196Z,18.89
2023-05-09T10:36:46.587Z,18.89
2023-05-09T10:39:19.793Z,18.91
2023-05-09T10:41:52.306Z,18.91
2023-05-09T10:44:25.412Z,18.91
2023-05-09T10:46:58.074Z,18.92
2023-05-09T10:49:30.916Z,18.91
2023-05-09T10:52:03.281Z,18.92
2023-05-09T10:54:37.552Z,18.92
2023-05-09T10:57:11.309Z,18.93
2023-05-09T10:59:43.783Z,18.95
2023-05-09T11:02:19.907Z,18.95
2023-05-09T11:05:16.491Z,18.96
2023-05-09T11:08:19.163Z,18.97
2023-05-09T11:10:52.948Z,18.97
2023-05-09T11:13:30.243Z,18.98
2023-05-09T11:16:02.660Z,19.00
2023-05-09T11:18:35.001Z,19.04
2023-05-09T11:21:09.340Z,19.05
2023-05-09T11:23:43.000Z,19.07
2023-05-09T11:26:16.753Z,19.09
2023-05-09T11:28:54.213Z,19.09
2023-05-09T11:31:26.621Z,19.09
2023-05-09T11:34:05.053Z,19.09
2023-05-09T11:36:37.388Z,19.09
2023-05-09T11:39:11.473Z,19.09
2023-05-09T11:41:46.840Z,19.07
2023-05-09T11:44:21.210Z,19.09
2023-05-09T11:46:53.733Z,19.10
2023-05-09T11:49:28.349Z,19.09
2023-05-09T11:52:01.752Z,19.06
2023-05-09T11:54:38.443Z,19.05
2023-05-09T11:57:17.240Z,19.02
2023-05-09T11:59:49.640Z,19.04
2023-05-09T12:02:22.873Z,19.04
2023-05-09T12:04:55.343Z,19.03
2023-05-09T12:07:27.872Z,19.04
2023-05-09T12:10:02.822Z,19.05
2023-05-09T12:12:36.696Z,19.06
2023-05-09T12:15:09.588Z,19.06
2023-05-09T12:17:43.253Z,19.08
2023-05-09T12:20:15.900Z,19.10
2023-05-09T12:22:53.504Z,19.12
2023-05-09T12:25:26.142Z,19.14
2023-05-09T12:27:58.874Z,19.17
2023-05-09T12:30:31.825Z,19.22
2023-05-09T12:33:04.738Z,19.23
2023-05-09T12:35:39.599Z,19.27
2023-05-09T12:38:33.081Z,19.30
2023-05-09T12:41:18.675Z,19.31
2023-05-09T12:44:02.335Z,19.33
2023-05-09T12:46:35.736Z,19.35
2023-05-09T12:49:20.964Z,19.38
2023-05-09T12:51:55.046Z,19.40
2023-05-09T12:54:29.088Z,19.44
2023-05-09T12:57:03.064Z,19.44
2023-05-09T12:59:35.451Z,19.46
2023-05-09T13:02:07.929Z,19.47
2023-05-09T13:04:40.432Z,19.45
2023-05-09T13:07:12.793Z,19.46
2023-05-09T13:09:58.017Z,19.45
2023-05-09T13:12:30.854Z,19.43
2023-05-09T13:15:03.357Z,19.43
2023-05-09T13:17:35.928Z,19.42
2023-05-09T13:20:09.249Z,19.43
2023-05-09T13:22:41.879Z,19.43
2023-05-09T13:25:14.413Z,19.43
2023-05-09T13:27:46.836Z,19.45
2023-05-09T13:30:19.571Z,19.46
2023-05-09T13:32:52.272Z,19.47
2023-05-09T13:35:24.794Z,19.49
2023-05-09T13:37:58.825Z,19.52
2023-05-09T13:40:31.176Z,19.56
2023-05-09T13:43:03.686Z,19.59
2023-05-09T13:45:36.109Z,19.61
2023-05-09T13:48:08.564Z,19.65
2023-05-09T13:50:40.955Z,19.68
2023-05-09T13:53:13.434Z,19.75
2023-05-09T13:55:46.352Z,19.80
2023-05-09T13:58:19.038Z,19.82
2023-05-09T14:00:51.609Z,19.80
2023-05-09T14:03:23.973Z,19.78
2023-05-09T14:05:56.312Z,19.76
2023-05-09T14:08:28.709Z,19.73
2023-05-09T14:11:04.410Z,19.70
2023-05-09T14:13:36.792Z,19.68
2023-05-09T14:16:09.300Z,19.65
2023-05-09T14:18:41.677Z,19.64
2023-05-09T14:21:15.538Z,19.62
2023-05-09T14:23:48.324Z,19.63
2023-05-09T14:26:20.723Z,19.66
2023-05-09T14:28:53.495Z,19.69
2023-05-09T14:31:25.975Z,19.73
2023-05-09T14:34:00.300Z,19.74
2023-05-09T14:36:33.064Z,19.76
2023-05-09T14:39:06.444Z,19.74
2023-05-09T14:41:38.834Z,19.76
2023-05-09T14:44:11.243Z,19.78
2023-05-09T14:46:43.809Z,19.84
2023-05-09T14:49:16.403Z,19.87
2023-05-09T14:51:48.740Z,19.92
2023-05-09T14:54:21.721Z,19.92
2023-05-09T14:56:54.098Z,19.93
2023-05-09T14:59:26.414Z,19.93
2023-05-09T15:01:59.913Z,19.91
2023-05-09T15:04:32.307Z,19.88
2023-05-09T15:07:04.866Z,19.91
2023-05-09T15:09:37.901Z,19.93
2023-05-09T15:12:10.886Z,19.98
2023-05-09T15:14:43.280Z,20.05
2023-05-09T15:17:15.912Z,20.09
2023-05-09T15:19:49.029Z,20.11
2023-05-09T15:22:21.389Z,20.12
2023-05-09T15:24:53.764Z,20.11
2023-05-09T15:27:26.802Z,20.13
2023-05-09T15:29:59.242Z,20.21
2023-05-09T15:32:32.495Z,20.27
2023-05-09T15:35:06.547Z,20.30
2023-05-09T15:37:40.124Z,20.38
2023-05-09T15:40:13.309Z,20.44
2023-05-09T15:42:48.320Z,20.49
2023-05-09T15:45:20.749Z,20.55
2023-05-09T15:47:53.038Z,20.57
2023-05-09T15:50:25.533Z,20.60
2023-05-09T15:52:57.876Z,20.68
2023-05-09T15:55:31.566Z,20.81
2023-05-09T15:58:03.918Z,20.95
2023-05-09T16:00:36.540Z,21.05
2023-05-09T16:03:08.971Z,21.08
2023-05-09T16:05:43.055Z,21.06
2023-05-09T16:08:15.490Z,21.00
2023-05-09T16:10:49.118Z,20.93
2023-05-09T16:13:21.619Z,20.85
2023-05-09T16:15:54.174Z,20.77
2023-05-09T16:18:26.532Z,20.70
2023-05-09T16:20:59.660Z,20.63
2023-05-09T16:23:31.898Z,20.58
2023-05-09T16:26:05.763Z,20.52
2023-05-09T16:28:40.189Z,20.48
2023-05-09T16:31:12.662Z,20.43
2023-05-09T16:33:47.089Z,20.39
2023-05-09T16:36:19.522Z,20.36
2023-05-09T16:38:52.633Z,20.33
2023-05-09T16:41:24.947Z,20.30
2023-05-09T16:43:58.825Z,20.27
2023-05-09T16:46:31.319Z,20.25
2023-05-09T16:49:06.175Z,20.21
2023-05-09T16:51:38.725Z,20.20
2023-05-09T16:54:11.114Z,20.18
2023-05-09T16:56:43.487Z,20.17
2023-05-09T16:59:16.194Z,20.13
2023-05-09T17:01:48.673Z,20.12
2023-05-09T17:04:21.080Z,20.11
2023-05-09T17:06:53.542Z,20.09
2023-05-09T17:09:26.064Z,20.05
2023-05-09T17:11:59.021Z,20.03
2023-05-09T17:14:31.459Z,20.00
2023-05-09T17:17:04.236Z,19.97
2023-05-09T17:19:36.958Z,19.93
2023-05-09T17:22:10.975Z,19.88
2023-05-09T17:24:44.069Z,19.87
2023-05-09T17:27:18.398Z,19.84
2023-05-09T17:29:52.256Z,19.82
2023-05-09T17:32:24.682Z,19.80
2023-05-09T17:34:57.091Z,19.79
2023-05-09T17:37:29.408Z,19.77
2023-05-09T17:40:02.268Z,19.75
2023-05-09T17:42:36.351Z,19.72
2023-05-09T17:45:11.769Z,19.71
2023-05-09T17:47:44.076Z,19.69
2023-05-09T17:50:17.486Z,19.69
2023-05-09T17:52:50.138Z,19.68
2023-05-09T17:55:22.391Z,19.67
2023-05-09T17:57:54.838Z,19.66
2023-05-09T18:00:27.205Z,19.64
2023-05-09T18:03:00.953Z,19.61
2023-05-09T18:05:34.761Z,19.62
2023-05-09T18:08:07.194Z,19.62
2023-05-09T18:10:41.190Z,19.60
2023-05-09T18:13:14.075Z,19.58
2023-05-09T18:15:46.572Z,19.57
2023-05-09T18:18:18.986Z,19.56
2023-05-09T18:20:51.347Z,19.56
2023-05-09T18:23:25.613Z,19.52
2023-05-09T18:25:58.569Z,19.50
2023-05-09T18:28:31.981Z,19.50
2023-05-09T18:31:04.418Z,19.48
2023-05-09T18:33:38.444Z,19.47
2023-05-09T18:36:11.310Z,19.45
2023-05-09T18:38:45.607Z,19.45
2023-05-09T18:41:18.500Z,19.45
2023-05-09T18:43:50.826Z,19.45
2023-05-09T18:46:23.276Z,19.44
2023-05-09T18:48:55.607Z,19.44
2023-05-09T18:51:30.817Z,19.42
2023-05-09T18:54:03.335Z,19.42
2023-05-09T18:56:39.342Z,19.42
2023-05-09T18:59:13.998Z,19.42
2023-05-09T19:01:46.440Z,19.40
2023-05-09T19:04:19.561Z,19.39
2023-05-09T19:06:52.041Z,19.39
2023-05-09T19:09:25.461Z,19.37
2023-05-09T19:11:59.548Z,19.36
2023-05-09T19:14:32.264Z,19.36
2023-05-09T19:17:06.223Z,19.34
2023-05-09T19:19:39.014Z,19.34
2023-05-09T19:22:12.890Z,19.34
2023-05-09T19:24:45.269Z,19.33
2023-05-09T19:27:19.049Z,19.33
2023-05-09T19:29:51.658Z,19.32
2023-05-09T19:32:23.930Z,19.31
2023-05-09T19:34:56.675Z,19.31
2023-05-09T19:37:28.955Z,19.29
2023-05-09T19:40:05.912Z,19.29
2023-05-09T19:42:39.443Z,19.28
2023-05-09T19:45:12.371Z,19.28
2023-05-09T19:47:44.819Z,19.27
2023-05-09T19:50:18.351Z,19.27
2023-05-09T19:52:51.079Z,19.25
2023-05-09T19:55:23.706Z,19.23
2023-05-09T19:57:56.206Z,19.24
2023-05-09T20:00:28.567Z,19.23
2023-05-09T20:03:04.340Z,19.23
2023-05-09T20:05:36.874Z,19.22
2023-05-09T20:08:09.583Z,19.21
2023-05-09T20:10:41.958Z,19.21
2023-05-09T20:13:14.748Z,19.19
2023-05-09T20:15:47.818Z,19.20
2023-05-09T20:18:20.143Z,19.17
2023-05-09T20:20:53.934Z,19.19
2023-05-09T20:23:27.805Z,19.19
2023-05-09T20:26:00.343Z,19.17
2023-05-09T20:28:32.800Z,19.16
2023-05-09T20:31:05.364Z,19.17
2023-05-09T20:33:37.682Z,19.17
2023-05-09T20:36:11.246Z,19.17
2023-05-09T20:38:43.574Z,19.18
2023-05-09T20:41:15.874Z,19.17
2023-05-09T20:43:48.248Z,19.17
2023-05-09T20:46:20.719Z,19.19
2023-05-09T20:48:53.305Z,19.17
2023-05-09T20:51:25.788Z,19.17
2023-05-09T20:54:01.856Z,19.17
2023-05-09T20:56:35.514Z,19.17
2023-05-09T20:59:08.096Z,19.17
2023-05-09T21:01:40.793Z,19.17
2023-05-09T21:04:13.091Z,19.19
2023-05-09T21:06:45.465Z,19.17
2023-05-09T21:09:18.485Z,19.18
2023-05-09T21:11:50.751Z,19.17
2023-05-09T21:14:23.493Z,19.17
2023-05-09T21:16:58.133Z,19.16
2023-05-09T21:19:30.499Z,19.19
2023-05-09T21:22:02.915Z,19.17
2023-05-09T21:24:35.643Z,19.16
2023-05-09T21:27:07.969Z,19.16
2023-05-09T21:29:40.555Z,19.15
2023-05-09T21:32:12.949Z,19.15
2023-05-09T21:34:47.716Z,19.15
2023-05-09T21:37:20.619Z,19.15
2023-05-09T21:39:54.525Z,19.15
2023-05-09T21:42:26.921Z,19.14
2023-05-09T21:44:59.432Z,19.15
2023-05-09T21:47:32.197Z,19.14
2023-05-09T21:50:05.379Z,19.15
2023-05-09T21:52:37.885Z,19.14
2023-05-09T21:55:10.358Z,19.14
2023-05-09T21:57:43.225Z,19.13
2023-05-09T22:00:16.745Z,19.13
2023-05-09T22:02:49.808Z,19.13
2023-05-09T22:05:23.955Z,19.14
2023-05-09T22:07:56.285Z,19.13
2023-05-09T22:10:28.843Z,19.12
2023-05-09T22:13:01.141Z,19.12
2023-05-09T22:15:33.490Z,19.12
2023-05-09T22:18:05.904Z,19.11
2023-05-09T22:20:38.245Z,19.10
2023-05-09T22:23:10.773Z,19.10
2023-05-09T22:25:45.681Z,19.12
2023-05-09T22:28:18.433Z,19.11
2023-05-09T22:31:14.146Z,19.10
2023-05-09T22:34:18.098Z,19.10
2023-05-09T22:36:58.201Z,19.09
2023-05-09T22:39:30.989Z,19.08
2023-05-09T22:42:04.123Z,19.07
2023-05-09T22:44:37.105Z,19.07
2023-05-09T22:47:09.890Z,19.07
2023-05-09T22:49:44.013Z,19.06
2023-05-09T22:52:18.161Z,19.06
2023-05-09T22:54:50.540Z,19.05
2023-05-09T22:57:24.394Z,19.05
2023-05-09T22:59:56.818Z,19.04
2023-05-09T23:02:29.251Z,19.05
2023-05-09T23:05:01.819Z,19.05
2023-05-09T23:07:36.229Z,19.04
2023-05-09T23:10:09.586Z,19.04
2023-05-09T23:12:42.965Z,19.03
2023-05-09T23:15:15.897Z,19.03
2023-05-09T23:17:48.504Z,19.02
2023-05-09T23:20:20.927Z,19.02
2023-05-09T23:22:53.293Z,19.01
2023-05-09T23:25:32.384Z,19.01
2023-05-09T23:28:05.781Z,19.01
2023-05-09T23:30:38.292Z,19.00
2023-05-09T23:33:11.703Z,19.00
2023-05-09T23:35:45.201Z,19.00
2023-05-09T23:38:17.718Z,18.99
2023-05-09T23:40:50.028Z,18.98
2023-05-09T23:43:22.355Z,18.98
2023-05-09T23:45:56.718Z,18.98
2023-05-09T23:48:29.749Z,18.96
2023-05-09T23:51:02.157Z,18.97
2023-05-09T23:53:35.317Z,18.96
2023-05-09T23:56:08.381Z,18.95
2023-05-09T23:58:40.810Z,18.96
